Time;durP1;ratioP1;P1;durP2;ratioP2;P2;SDS_P1;SDS_P2;PMS_P1;PMS_P2;Temp;Humidity;BMP_temperature;BMP_pressure;BME280_temperature;BME280_humidity;BME280_pressure;Samples;Min_cycle;Max_cycle;Signal;HPM_P1;HPM_P2
2021/08/28 00:02:19;;;;;;;3.20;0.50;;;;;;;27.77;33.95;96627.19;4989345;28;20033;-37
2021/08/28 00:04:44;;;;;;;1.77;0.50;;;;;;;27.75;33.94;96615.91;5003570;28;20215;-31
2021/08/28 00:07:10;;;;;;;1.60;0.60;;;;;;;27.78;33.91;96623.63;5004824;28;20045;-35
2021/08/28 00:09:35;;;;;;;3.47;0.60;;;;;;;27.79;33.98;96627.94;5002408;28;20190;-32
2021/08/28 00:12:01;;;;;;;1.33;0.63;;;;;;;27.78;34.07;96624.47;5016195;28;20029;-31
2021/08/28 00:14:26;;;;;;;1.48;0.77;;;;;;;27.78;33.97;96623.63;5010781;28;20057;-30
2021/08/28 00:16:51;;;;;;;2.50;0.75;;;;;;;27.78;33.99;96616.56;5012660;28;20889;-32
2021/08/28 00:19:17;;;;;;;2.72;0.55;;;;;;;27.79;33.96;96617.41;5006942;28;20029;-29
2021/08/28 00:21:42;;;;;;;2.85;0.75;;;;;;;27.78;33.97;96615.72;5010689;28;20036;-31
2021/08/28 00:24:08;;;;;;;2.40;0.63;;;;;;;27.79;34.00;96622.66;5011347;28;20264;-30
2021/08/28 00:26:33;;;;;;;3.20;0.70;;;;;;;27.79;34.06;96617.41;5010866;28;22688;-29
2021/08/28 00:28:58;;;;;;;1.70;0.40;;;;;;;27.78;34.08;96616.56;5010099;28;20411;-34
2021/08/28 00:31:24;;;;;;;2.30;0.70;;;;;;;27.80;34.11;96619.06;5016600;28;20036;-32
2021/08/28 00:33:49;;;;;;;3.28;0.52;;;;;;;27.79;34.00;96617.41;5018359;28;20022;-33
2021/08/28 00:36:14;;;;;;;2.17;0.85;;;;;;;27.79;34.02;96617.41;5011732;28;20267;-30
2021/08/28 00:38:40;;;;;;;1.23;0.50;;;;;;;27.78;34.22;96613.94;5006651;28;20022;-31
2021/08/28 00:41:06;;;;;;;1.58;0.52;;;;;;;27.77;34.19;96614.03;5004189;28;20052;-31
2021/08/28 00:43:32;;;;;;;1.50;0.60;;;;;;;27.76;34.09;96612.31;5004258;28;20037;-31
2021/08/28 00:45:58;;;;;;;1.25;0.68;;;;;;;27.79;34.01;96617.41;5005253;28;20021;-30
2021/08/28 00:48:23;;;;;;;1.88;0.50;;;;;;;27.76;33.98;96613.19;5003906;28;20033;-30
2021/08/28 00:50:49;;;;;;;3.80;0.80;;;;;;;27.80;34.03;96624.34;5014401;28;20041;-30
2021/08/28 00:53:15;;;;;;;1.85;0.70;;;;;;;27.79;34.15;96617.41;5014597;28;21096;-33
2021/08/28 00:55:42;;;;;;;2.53;0.60;;;;;;;27.81;34.04;96620.78;5010572;28;20029;-30
2021/08/28 00:58:08;;;;;;;1.02;0.50;;;;;;;27.80;34.16;96616.44;5003561;28;20030;-28
2021/08/28 01:00:40;;;;;;;1.95;0.77;;;;;;;27.80;34.05;96613.81;5012583;28;20068;-30
2021/08/28 01:03:05;;;;;;;1.77;0.60;;;;;;;27.80;34.08;96615.63;5014193;28;20029;-31
2021/08/28 01:05:42;;;;;;;4.85;0.98;;;;;;;27.80;34.09;96615.63;5015585;28;20095;-31
2021/08/28 01:08:38;;;;;;;0.93;0.50;;;;;;;27.80;34.15;96616.44;5014149;28;20226;-29
2021/08/28 01:11:56;;;;;;;1.23;0.47;;;;;;;27.80;34.01;96612.97;5009441;28;20087;-34
2021/08/28 01:14:24;;;;;;;3.72;0.70;;;;;;;27.78;34.08;96606.03;5004035;28;20037;-34
2021/08/28 01:16:51;;;;;;;1.05;0.43;;;;;;;27.77;34.16;96609.59;5009771;28;20044;-34
2021/08/28 01:19:22;;;;;;;1.90;0.50;;;;;;;27.78;34.14;96608.66;5004761;28;20029;-33
2021/08/28 01:21:48;;;;;;;1.52;0.52;;;;;;;27.78;34.24;96607.81;4990994;28;20140;-32
2021/08/28 01:24:13;;;;;;;1.63;0.63;;;;;;;27.78;34.46;96615.72;5008288;28;20373;-31
2021/08/28 01:26:42;;;;;;;1.40;0.60;;;;;;;27.78;34.18;96610.44;5005209;28;20064;-31
2021/08/28 01:29:17;;;;;;;2.25;0.77;;;;;;;27.78;34.13;96616.56;5008355;28;20116;-33
2021/08/28 01:31:43;;;;;;;1.48;0.55;;;;;;;27.79;34.34;96614.75;5013416;28;20035;-33
2021/08/28 01:34:08;;;;;;;3.00;0.50;;;;;;;27.78;34.33;96610.44;5014816;28;20392;-32
2021/08/28 01:36:34;;;;;;;2.58;0.60;;;;;;;27.78;34.19;96611.31;5013979;28;20040;-31
2021/08/28 01:39:00;;;;;;;3.45;0.95;;;;;;;27.78;34.16;96610.44;5009212;28;20033;-29
2021/08/28 01:41:26;;;;;;;1.77;0.65;;;;;;;27.79;34.05;96617.41;5009479;28;20025;-33
2021/08/28 01:43:51;;;;;;;0.93;0.55;;;;;;;27.78;34.04;96616.56;5009671;28;20413;-30
2021/08/28 01:46:17;;;;;;;3.90;0.80;;;;;;;27.78;34.18;96608.66;5015637;28;20033;-34
2021/08/28 01:48:42;;;;;;;2.92;0.47;;;;;;;27.79;34.31;96604.22;5005152;28;20411;-29
2021/08/28 01:51:08;;;;;;;1.85;0.70;;;;;;;27.79;34.24;96601.59;5006123;28;20048;-33
2021/08/28 01:53:33;;;;;;;4.95;0.70;;;;;;;27.79;34.28;96606.88;5004405;28;20722;-28
2021/08/28 01:56:01;;;;;;;3.22;0.85;;;;;;;27.78;34.22;96610.44;5008051;28;20052;-37
2021/08/28 01:58:28;;;;;;;1.30;0.70;;;;;;;27.78;34.27;96610.44;5007644;28;20026;-31
2021/08/28 02:00:53;;;;;;;1.25;0.70;;;;;;;27.78;34.18;96611.31;5009353;28;20117;-30
2021/08/28 02:03:18;;;;;;;3.50;0.60;;;;;;;27.79;34.22;96614.75;5010641;28;20388;-29
2021/08/28 02:05:47;;;;;;;6.32;0.85;;;;;;;27.79;34.20;96606.88;5008496;28;20044;-33
2021/08/28 02:08:17;;;;;;;3.25;0.90;;;;;;;27.79;34.18;96598.97;5012413;28;20563;-30
2021/08/28 02:10:48;;;;;;;1.13;0.60;;;;;;;27.79;34.28;96612.13;5013481;28;20037;-33
2021/08/28 02:13:18;;;;;;;0.90;0.63;;;;;;;27.79;34.27;96612.13;5009588;28;20496;-29
2021/08/28 02:15:47;;;;;;;1.70;0.63;;;;;;;27.76;34.28;96607.06;4996365;28;20060;-28
2021/08/28 02:18:55;;;;;;;0.85;0.60;;;;;;;27.78;34.28;96607.81;5009254;28;20048;-35
2021/08/28 02:21:23;;;;;;;1.10;0.50;;;;;;;27.79;34.18;96601.59;4988558;28;20099;-30
2021/08/28 02:23:50;;;;;;;0.93;0.60;;;;;;;27.77;34.17;96603.50;5007155;28;20021;-32
2021/08/28 02:26:19;;;;;;;3.50;0.80;;;;;;;27.79;34.19;96606.88;4992686;28;20064;-34
2021/08/28 02:28:51;;;;;;;1.35;0.40;;;;;;;27.78;34.34;96605.19;5010509;28;20144;-29
2021/08/28 02:31:17;;;;;;;4.63;0.75;;;;;;;27.80;34.23;96602.47;5010941;28;20152;-31
2021/08/28 02:33:43;;;;;;;1.33;0.80;;;;;;;27.78;34.43;96608.66;5004694;28;20029;-31
2021/08/28 02:36:08;;;;;;;1.45;0.70;;;;;;;27.78;34.33;96606.03;5008951;28;20907;-28
2021/08/28 02:38:34;;;;;;;1.25;0.75;;;;;;;27.77;34.36;96598.22;5009037;28;20025;-29
2021/08/28 02:41:00;;;;;;;1.92;0.80;;;;;;;27.78;34.32;96599.91;5007475;28;20103;-33
2021/08/28 02:43:26;;;;;;;1.77;0.95;;;;;;;27.76;34.34;96591.25;5008474;28;20498;-32
2021/08/28 02:45:51;;;;;;;1.55;0.90;;;;;;;27.79;34.30;96598.97;5014675;28;20025;-31
2021/08/28 02:48:19;;;;;;;1.27;0.80;;;;;;;27.78;34.41;96594.66;5011355;28;20040;-29
2021/08/28 02:50:44;;;;;;;0.30;0.30;;;;;;;27.78;34.32;96594.66;4993089;28;20434;-29
2021/08/28 02:53:12;;;;;;;1.35;0.60;;;;;;;27.78;34.25;96595.50;5007781;28;20041;-31
2021/08/28 02:55:37;;;;;;;1.63;0.63;;;;;;;27.79;34.31;96598.97;5009962;28;20025;-30
2021/08/28 02:58:03;;;;;;;2.15;0.82;;;;;;;27.78;34.35;96600.78;4992267;28;20025;-30
2021/08/28 03:00:28;;;;;;;2.05;0.65;;;;;;;27.79;34.24;96593.69;5011427;28;20661;-33
2021/08/28 03:02:54;;;;;;;1.55;0.80;;;;;;;27.79;34.21;96601.59;5011516;28;20068;-29
2021/08/28 03:05:19;;;;;;;0.50;0.50;;;;;;;27.79;34.30;96596.34;4989687;28;20036;-29
2021/08/28 03:07:44;;;;;;;1.48;0.70;;;;;;;27.79;34.41;96601.59;5008781;28;20082;-33
2021/08/28 03:10:10;;;;;;;1.30;0.70;;;;;;;27.77;34.35;96593.78;5012145;28;20053;-28
2021/08/28 03:12:39;;;;;;;1.88;0.60;;;;;;;27.80;34.39;96597.19;5004058;28;20095;-29
2021/08/28 03:15:08;;;;;;;0.85;0.52;;;;;;;27.78;34.21;96605.19;5009385;28;20472;-31
2021/08/28 03:17:34;;;;;;;1.08;0.60;;;;;;;27.79;34.20;96598.97;5022142;28;20047;-33
2021/08/28 03:19:59;;;;;;;1.23;0.50;;;;;;;27.79;34.31;96591.06;4994353;28;20079;-34
2021/08/28 03:22:25;;;;;;;0.90;0.60;;;;;;;27.78;34.28;96594.66;5007191;28;20525;-30
2021/08/28 03:24:50;;;;;;;0.95;0.45;;;;;;;27.78;34.24;96592.00;4993012;28;20080;-30
2021/08/28 03:27:16;;;;;;;1.00;0.60;;;;;;;27.79;34.50;96596.34;5009678;28;20029;-31
2021/08/28 03:29:41;;;;;;;1.50;0.63;;;;;;;27.78;34.35;96594.66;5011380;28;20053;-32
2021/08/28 03:32:07;;;;;;;1.13;0.60;;;;;;;27.78;34.34;96584.13;4994441;28;20040;-31
2021/08/28 03:34:32;;;;;;;1.25;0.65;;;;;;;27.77;34.35;96588.53;5031444;28;20076;-28
2021/08/28 03:36:58;;;;;;;1.15;0.52;;;;;;;27.78;34.47;96589.38;5024440;28;20091;-30
2021/08/28 03:39:23;;;;;;;2.08;0.90;;;;;;;27.78;34.32;96584.13;5006415;28;20040;-29
2021/08/28 03:41:48;;;;;;;2.38;1.20;;;;;;;27.78;34.35;96584.97;5008950;28;20037;-28
2021/08/28 03:44:15;;;;;;;1.17;0.70;;;;;;;27.78;34.41;96589.38;5005501;28;20034;-33
2021/08/28 03:46:41;;;;;;;1.50;0.70;;;;;;;27.78;34.43;96589.38;5005235;28;20140;-29
2021/08/28 03:49:06;;;;;;;4.15;0.90;;;;;;;27.78;34.34;96584.97;5009519;28;20399;-30
2021/08/28 03:51:33;;;;;;;2.42;0.95;;;;;;;27.79;34.43;96588.44;5010395;28;20041;-29
2021/08/28 03:53:59;;;;;;;1.38;0.73;;;;;;;27.79;34.33;96591.06;5012956;28;20123;-35
2021/08/28 03:56:24;;;;;;;1.65;0.70;;;;;;;27.78;34.52;96594.66;5016890;28;20066;-31
2021/08/28 03:58:50;;;;;;;0.75;0.57;;;;;;;27.79;34.38;96585.81;5031020;28;20021;-32
2021/08/28 04:01:15;;;;;;;3.63;0.80;;;;;;;27.78;34.31;96581.47;5008056;28;20036;-33
2021/08/28 04:03:40;;;;;;;1.27;0.80;;;;;;;27.78;34.40;96586.75;5010461;28;20025;-30
2021/08/28 04:06:06;;;;;;;4.03;0.93;;;;;;;27.79;34.30;96583.16;5013753;28;20033;-31
2021/08/28 04:08:31;;;;;;;0.95;0.75;;;;;;;27.78;34.24;96584.13;5016909;28;20487;-30
2021/08/28 04:10:56;;;;;;;4.85;0.90;;;;;;;27.78;34.39;96586.75;5009734;28;20033;-31
2021/08/28 04:13:22;;;;;;;3.05;0.80;;;;;;;27.79;34.40;96585.81;5012024;28;20036;-30
2021/08/28 04:15:47;;;;;;;1.83;0.85;;;;;;;27.80;34.42;96586.66;5009176;28;20022;-28
2021/08/28 04:18:13;;;;;;;1.17;0.63;;;;;;;27.78;34.46;96590.25;5011791;28;20771;-29
2021/08/28 04:20:38;;;;;;;1.35;0.80;;;;;;;27.77;34.40;96588.53;5015465;28;20041;-35
2021/08/28 04:23:03;;;;;;;1.17;0.60;;;;;;;27.80;34.31;96592.75;5015156;28;20083;-31
2021/08/28 04:25:29;;;;;;;1.20;0.80;;;;;;;27.80;34.51;96597.19;5012347;28;20029;-30
2021/08/28 04:27:54;;;;;;;1.75;0.70;;;;;;;27.80;34.51;96587.47;5005278;28;20032;-30
2021/08/28 04:30:20;;;;;;;2.25;0.90;;;;;;;27.79;34.41;96585.81;5007201;28;20065;-31
2021/08/28 04:32:45;;;;;;;1.90;0.80;;;;;;;27.79;34.42;96593.69;5011227;28;20371;-28
2021/08/28 04:35:11;;;;;;;1.15;0.90;;;;;;;27.79;34.34;96596.34;5007565;28;20026;-33
2021/08/28 04:37:36;;;;;;;1.20;0.80;;;;;;;27.77;34.45;96592.97;5011541;28;20057;-29
2021/08/28 04:40:02;;;;;;;2.15;0.77;;;;;;;27.78;34.45;96594.66;5016127;28;20494;-29
2021/08/28 04:42:27;;;;;;;1.33;0.77;;;;;;;27.78;34.37;96600.78;5004120;28;20807;-29
2021/08/28 04:44:54;;;;;;;1.55;0.60;;;;;;;27.78;34.50;96599.91;5001516;28;20136;-30
2021/08/28 04:47:20;;;;;;;1.23;0.77;;;;;;;27.78;34.50;96600.78;5007242;28;20140;-32
2021/08/28 04:49:46;;;;;;;1.67;0.70;;;;;;;27.78;34.39;96599.91;5015101;28;20322;-31
2021/08/28 04:52:12;;;;;;;3.63;0.93;;;;;;;27.78;34.33;96605.19;5011747;28;20666;-31
2021/08/28 04:54:37;;;;;;;1.02;0.70;;;;;;;27.78;34.63;96610.44;5008548;28;20396;-29
2021/08/28 04:57:03;;;;;;;1.50;0.80;;;;;;;27.78;34.43;96610.44;5011616;28;20049;-29
2021/08/28 04:59:28;;;;;;;1.95;0.85;;;;;;;27.78;34.52;96613.06;5015335;28;20373;-28
2021/08/28 05:01:55;;;;;;;3.45;0.90;;;;;;;27.77;34.61;96612.22;5023126;28;20036;-30
2021/08/28 05:04:20;;;;;;;1.25;0.80;;;;;;;27.78;34.62;96610.44;5011321;28;20029;-28
2021/08/28 05:06:46;;;;;;;1.98;0.73;;;;;;;27.77;34.55;96614.84;5011082;28;20481;-31
2021/08/28 05:09:11;;;;;;;1.17;0.80;;;;;;;27.78;34.52;96613.06;5013874;28;20518;-29
2021/08/28 05:11:37;;;;;;;2.03;1.08;;;;;;;27.78;34.40;96610.44;5009842;28;20033;-32
2021/08/28 05:14:02;;;;;;;1.00;0.60;;;;;;;27.78;34.55;96618.34;5012118;28;20037;-33
2021/08/28 05:16:27;;;;;;;1.20;0.80;;;;;;;27.77;34.65;96614.03;5013949;28;20576;-30
2021/08/28 05:18:53;;;;;;;1.42;1.08;;;;;;;27.78;34.62;96620.97;5006730;28;20090;-30
2021/08/28 05:21:18;;;;;;;0.65;0.50;;;;;;;27.78;34.52;96615.72;5011023;28;20037;-29
2021/08/28 05:23:43;;;;;;;1.20;0.80;;;;;;;27.77;34.40;96614.03;5013663;28;20024;-28
2021/08/28 05:26:09;;;;;;;1.08;0.85;;;;;;;27.77;34.64;96614.03;5011574;28;20472;-30
2021/08/28 05:29:33;;;;;;;1.48;0.93;;;;;;;-148.56;100.00;61375.16;5011425;28;20499;-30
2021/08/28 05:32:57;;;;;;;3.97;1.00;;;;;;;-148.56;100.00;61375.16;5004533;28;20056;-31
2021/08/28 05:36:20;;;;;;;1.63;0.82;;;;;;;-148.56;100.00;61375.16;5006615;28;20030;-28
2021/08/28 05:39:30;;;;;;;2.38;0.80;;;;;;;-148.56;100.00;61375.16;5006652;28;20021;-29
2021/08/28 05:42:54;;;;;;;4.25;0.88;;;;;;;-148.56;100.00;61375.16;5005607;28;20148;-29
2021/08/28 05:46:18;;;;;;;1.10;0.90;;;;;;;-148.56;100.00;61375.16;5009063;28;20025;-31
2021/08/28 05:49:42;;;;;;;3.15;0.80;;;;;;;-148.56;100.00;61375.16;5006794;28;20120;-28
2021/08/28 05:53:06;;;;;;;1.02;0.70;;;;;;;-148.56;100.00;61375.16;5005258;28;20112;-29
2021/08/28 05:56:30;;;;;;;3.08;0.98;;;;;;;-148.56;100.00;61375.16;5010068;28;20033;-30
2021/08/28 05:59:53;;;;;;;2.75;1.00;;;;;;;-148.56;100.00;61375.16;5007940;28;20121;-29
2021/08/28 06:03:17;;;;;;;5.32;1.00;;;;;;;-148.56;100.00;61375.16;5006683;28;20044;-34
2021/08/28 06:06:41;;;;;;;1.73;0.88;;;;;;;-148.56;100.00;61375.16;5014139;28;20112;-30
2021/08/28 06:10:05;;;;;;;3.72;0.98;;;;;;;-148.56;100.00;61375.16;5005567;28;20065;-30
2021/08/28 06:13:30;;;;;;;1.25;0.77;;;;;;;-148.56;100.00;61375.16;5007151;28;20025;-32
2021/08/28 06:16:53;;;;;;;1.30;0.80;;;;;;;-148.56;100.00;61375.16;5007142;28;20373;-31
2021/08/28 06:20:17;;;;;;;1.02;0.90;;;;;;;-148.56;100.00;61375.16;5009818;28;20472;-30
2021/08/28 06:23:41;;;;;;;1.67;1.00;;;;;;;-148.56;100.00;61375.16;5010986;28;20025;-35
2021/08/28 06:26:40;;;;;;;1.58;0.70;;;;;;;27.77;34.64;96614.03;5009593;28;20470;-35
2021/08/28 06:29:05;;;;;;;4.88;1.20;;;;;;;27.67;35.01;96644.50;5010630;28;20503;-30
2021/08/28 06:31:31;;;;;;;2.20;1.20;;;;;;;27.65;35.06;96639.34;5010223;28;20034;-32
2021/08/28 06:33:56;;;;;;;2.45;1.45;;;;;;;27.64;35.16;96638.50;5010847;28;20029;-28
2021/08/28 06:36:21;;;;;;;4.53;1.30;;;;;;;27.65;35.25;96634.09;5005428;28;20025;-31
2021/08/28 06:38:47;;;;;;;4.32;1.40;;;;;;;27.64;35.18;96643.75;5011415;28;20310;-30
2021/08/28 06:41:12;;;;;;;10.85;1.73;;;;;;;27.65;35.30;96640.19;5008194;28;20036;-34
2021/08/28 06:43:38;;;;;;;5.50;1.83;;;;;;;27.67;35.19;96636.59;5005928;28;20090;-29
2021/08/28 06:46:03;;;;;;;2.50;1.17;;;;;;;27.68;35.12;96641.78;5003263;28;20037;-30
2021/08/28 06:48:29;;;;;;;6.22;1.60;;;;;;;27.70;35.20;96639.91;4989811;28;20807;-32
2021/08/28 06:50:54;;;;;;;7.45;2.15;;;;;;;27.71;35.09;96638.09;5018596;28;20441;-31
2021/08/28 06:53:19;;;;;;;6.22;2.00;;;;;;;27.69;35.02;96637.38;5004402;28;20040;-30
2021/08/28 06:55:45;;;;;;;5.63;2.08;;;;;;;27.73;35.00;96644.13;5004928;28;20040;-34
2021/08/28 06:58:10;;;;;;;7.05;2.53;;;;;;;27.73;35.09;96638.88;5004477;28;20021;-30
2021/08/28 07:00:36;;;;;;;6.07;2.50;;;;;;;27.73;35.02;96637.06;4999325;28;20060;-32
2021/08/28 07:03:01;;;;;;;7.88;2.33;;;;;;;27.74;35.01;96645.81;5003922;28;20037;-33
2021/08/28 07:05:26;;;;;;;5.70;2.40;;;;;;;27.73;34.81;96633.59;5002651;28;20021;-29
2021/08/28 07:07:52;;;;;;;6.65;2.25;;;;;;;27.74;34.78;96640.53;5002529;28;20251;-31
2021/08/28 07:10:17;;;;;;;5.75;3.13;;;;;;;27.73;34.49;96633.59;5003281;28;20420;-34
2021/08/28 07:12:43;;;;;;;5.80;2.95;;;;;;;27.70;34.32;96642.53;5004061;28;20021;-32
2021/08/28 07:15:09;;;;;;;6.65;3.00;;;;;;;27.70;34.25;96636.41;5003499;28;20037;-35
2021/08/28 07:17:34;;;;;;;6.32;3.22;;;;;;;27.67;34.18;96634.81;5005985;28;20979;-29
2021/08/28 07:20:00;;;;;;;5.72;2.80;;;;;;;27.64;34.28;96632.38;5008629;28;20033;-30
2021/08/28 07:22:25;;;;;;;7.47;2.80;;;;;;;27.61;34.20;96630.78;5005636;28;20507;-32
2021/08/28 07:24:51;;;;;;;14.32;2.72;;;;;;;27.60;34.38;96633.47;5008257;28;20025;-34
2021/08/28 07:27:17;;;;;;;5.70;2.33;;;;;;;27.58;34.55;96630.94;5008148;28;20077;-34
2021/08/28 07:29:43;;;;;;;4.63;2.20;;;;;;;27.59;34.59;96632.66;5007627;28;20059;-32
2021/08/28 07:32:09;;;;;;;8.07;2.20;;;;;;;27.59;34.69;96624.75;5004362;28;20478;-30
2021/08/28 07:34:36;;;;;;;5.45;2.28;;;;;;;27.59;34.63;96626.53;5010361;28;20032;-31
2021/08/28 07:37:04;;;;;;;3.63;2.30;;;;;;;27.58;34.79;96636.19;5008765;28;20082;-31
2021/08/28 07:39:30;;;;;;;4.25;2.38;;;;;;;27.58;34.54;96628.31;5006521;28;20406;-35
2021/08/28 07:41:55;;;;;;;5.75;2.25;;;;;;;27.59;34.79;96631.78;5010019;28;20026;-33
2021/08/28 07:44:21;;;;;;;4.32;2.22;;;;;;;27.59;34.75;96632.66;5002350;28;20041;-35
2021/08/28 07:46:48;;;;;;;4.82;2.33;;;;;;;27.59;34.76;96626.53;5003136;28;20026;-32
2021/08/28 07:49:13;;;;;;;3.88;2.10;;;;;;;27.57;34.71;96629.25;5008391;28;20176;-31
2021/08/28 07:51:39;;;;;;;6.97;2.50;;;;;;;27.58;34.82;96636.19;5008815;28;20480;-34
2021/08/28 07:54:04;;;;;;;6.18;2.70;;;;;;;27.55;34.81;96635.56;5008476;28;20036;-34
2021/08/28 07:56:29;;;;;;;5.82;2.05;;;;;;;27.57;34.78;96639.78;5007790;28;20098;-30
2021/08/28 07:58:55;;;;;;;3.80;2.13;;;;;;;27.57;34.67;96633.69;5010181;28;20041;-32
2021/08/28 08:01:20;;;;;;;7.32;2.42;;;;;;;27.57;34.68;96645.06;5008429;28;20055;-34
2021/08/28 08:03:46;;;;;;;3.70;2.10;;;;;;;27.57;34.69;96644.22;5008726;28;20415;-29
2021/08/28 08:06:11;;;;;;;3.00;1.85;;;;;;;27.57;34.82;96641.59;5005773;28;20034;-37
2021/08/28 08:08:36;;;;;;;4.68;1.90;;;;;;;27.56;34.90;96647.78;5008862;28;20036;-31
2021/08/28 08:11:02;;;;;;;3.50;2.00;;;;;;;27.57;34.89;96644.22;5007940;28;20022;-32
2021/08/28 08:13:27;;;;;;;4.47;1.70;;;;;;;27.57;34.83;96644.22;5010115;28;20036;-35
2021/08/28 08:15:52;;;;;;;4.18;1.55;;;;;;;27.58;34.87;96652.00;5007545;28;20040;-31
2021/08/28 08:18:18;;;;;;;2.20;1.65;;;;;;;27.58;34.93;96653.81;5006672;28;20033;-34
2021/08/28 08:20:43;;;;;;;5.40;3.97;;;;;;;27.56;33.70;96647.78;5006109;28;20087;-32
2021/08/28 08:23:09;;;;;;;13.50;4.22;;;;;;;27.44;33.67;96652.03;5004021;28;20133;-34
2021/08/28 08:25:34;;;;;;;6.47;4.97;;;;;;;27.21;33.61;96646.41;5007884;28;20033;-29
2021/08/28 08:27:59;;;;;;;5.35;4.45;;;;;;;27.02;34.05;96644.91;5004812;28;20033;-33
2021/08/28 08:30:25;;;;;;;20.15;3.78;;;;;;;26.82;34.08;96641.66;5003040;28;21678;-29
2021/08/28 08:32:50;;;;;;;5.88;3.72;;;;;;;26.70;34.56;96647.66;5003255;28;20041;-32
2021/08/28 08:35:16;;;;;;;7.88;3.53;;;;;;;26.61;34.69;96642.00;5003319;28;20488;-37
2021/08/28 08:37:41;;;;;;;7.97;3.40;;;;;;;26.58;34.87;96642.16;5003930;28;20603;-32
2021/08/28 08:40:07;;;;;;;7.40;3.20;;;;;;;26.58;35.14;96642.16;5006358;28;20021;-30
2021/08/28 08:42:32;;;;;;;8.60;3.00;;;;;;;26.61;35.29;96643.78;5006237;28;20040;-30
2021/08/28 08:44:58;;;;;;;6.20;2.95;;;;;;;26.66;35.07;96654.03;5007300;28;20033;-38
2021/08/28 08:47:24;;;;;;;7.47;3.17;;;;;;;26.69;35.17;96648.59;5009195;28;20032;-28
2021/08/28 08:49:51;;;;;;;6.30;2.83;;;;;;;26.73;35.25;96644.81;4990490;28;20029;-32
2021/08/28 08:52:17;;;;;;;6.00;2.90;;;;;;;26.76;35.38;96649.91;5008996;28;20032;-33
2021/08/28 08:54:43;;;;;;;7.20;2.45;;;;;;;26.80;35.20;96643.53;4988840;28;20029;-32
2021/08/28 08:57:09;;;;;;;7.28;2.65;;;;;;;26.85;35.25;96644.09;4988777;28;20445;-30
2021/08/28 08:59:34;;;;;;;10.25;2.45;;;;;;;26.87;35.33;96647.50;5008359;28;20025;-32
2021/08/28 09:02:02;;;;;;;5.82;2.60;;;;;;;26.92;35.23;96649.00;4988108;28;20570;-33
2021/08/28 09:04:27;;;;;;;9.93;2.67;;;;;;;26.96;35.26;96650.53;5009137;28;20028;-31
2021/08/28 09:06:52;;;;;;;11.50;3.17;;;;;;;27.00;35.14;96657.28;5007124;28;20053;-32
2021/08/28 09:09:18;;;;;;;8.85;3.15;;;;;;;27.03;35.23;96653.66;5012151;28;20079;-37
2021/08/28 09:12:00;;;;;;;18.50;3.65;;;;;;;27.06;35.19;96654.28;5015483;28;20033;-35
2021/08/28 09:14:26;;;;;;;14.63;3.75;;;;;;;27.09;35.13;96659.38;5015352;28;20511;-28
2021/08/28 09:16:52;;;;;;;19.83;3.55;;;;;;;27.12;35.14;96655.72;5016247;28;20033;-33
2021/08/28 09:19:18;;;;;;;18.50;3.80;;;;;;;27.12;35.25;96651.28;5013112;28;20090;-34
2021/08/28 09:21:44;;;;;;;18.52;4.13;;;;;;;27.17;35.02;96660.69;5015465;28;20022;-33
2021/08/28 09:24:11;;;;;;;15.80;3.80;;;;;;;27.18;35.09;96660.59;5017520;28;20167;-32
2021/08/28 09:26:38;;;;;;;15.60;4.18;;;;;;;27.20;35.13;96668.41;5019718;28;20033;-30
2021/08/28 09:29:05;;;;;;;12.80;3.95;;;;;;;27.22;35.17;96661.25;5013113;28;20037;-35
2021/08/28 09:31:41;;;;;;;13.38;3.25;;;;;;;27.24;35.07;96669.91;5011959;28;20297;-30
2021/08/28 09:34:26;;;;;;;13.23;3.30;;;;;;;27.27;35.16;96670.56;5011539;28;20103;-33
2021/08/28 09:37:02;;;;;;;14.48;3.13;;;;;;;27.28;35.02;96660.88;5014549;28;20025;-35
2021/08/28 09:39:42;;;;;;;9.18;3.33;;;;;;;27.30;35.08;96658.16;5013955;28;20060;-33
2021/08/28 09:42:09;;;;;;;10.15;3.22;;;;;;;27.32;35.06;96662.38;5012703;28;20795;-29
2021/08/28 09:44:40;;;;;;;12.13;2.80;;;;;;;27.34;35.02;96654.41;5012262;28;20123;-35
2021/08/28 09:47:10;;;;;;;8.15;2.53;;;;;;;27.34;35.13;96655.22;5011584;28;20502;-32
2021/08/28 09:49:36;;;;;;;7.13;2.50;;;;;;;27.36;34.88;96660.41;4994903;28;20040;-32
2021/08/28 09:52:01;;;;;;;7.32;2.40;;;;;;;27.37;34.95;96656.81;5017202;28;20033;-31
2021/08/28 09:54:27;;;;;;;8.02;2.28;;;;;;;27.38;35.08;96655.88;5015308;28;20021;-36
2021/08/28 09:57:00;;;;;;;8.75;2.20;;;;;;;27.41;35.00;96654.88;5011157;28;20033;-33
2021/08/28 09:59:27;;;;;;;7.72;2.15;;;;;;;27.41;35.02;96654.88;5014397;28;20380;-33
2021/08/28 10:01:52;;;;;;;8.15;2.20;;;;;;;27.42;34.96;96651.28;5016571;28;20031;-31
2021/08/28 10:04:17;;;;;;;7.00;2.10;;;;;;;27.42;34.96;96657.38;5029703;28;20029;-30
2021/08/28 10:06:47;;;;;;;4.35;1.90;;;;;;;27.45;34.85;96666.88;5012567;28;20037;-29
2021/08/28 10:09:20;;;;;;;6.00;1.88;;;;;;;27.44;34.88;96660.78;5013557;28;20104;-30
2021/08/28 10:11:48;;;;;;;5.40;1.60;;;;;;;27.46;34.76;96665.94;5012743;28;20036;-34
2021/08/28 10:14:20;;;;;;;4.97;2.05;;;;;;;27.46;34.79;96668.59;5010422;28;21095;-33
2021/08/28 10:16:46;;;;;;;4.53;1.75;;;;;;;27.47;34.66;96673.75;5013282;28;20044;-33
2021/08/28 10:19:16;;;;;;;2.20;1.30;;;;;;;27.48;34.73;96672.81;5013093;28;20476;-29
2021/08/28 10:21:46;;;;;;;5.50;1.50;;;;;;;27.49;34.67;96663.09;5031251;28;20112;-32
2021/08/28 10:24:13;;;;;;;4.68;1.60;;;;;;;27.49;34.76;96663.09;5029008;28;20021;-37
2021/08/28 10:26:38;;;;;;;3.30;1.45;;;;;;;27.49;34.76;96665.72;5002133;28;20025;-36
2021/08/28 10:29:04;;;;;;;3.22;1.27;;;;;;;27.49;34.82;96668.38;5005322;28;20048;-38
2021/08/28 10:31:29;;;;;;;6.03;1.42;;;;;;;27.49;34.74;96668.38;5020598;28;20829;-36
2021/08/28 10:33:55;;;;;;;4.10;1.40;;;;;;;27.49;34.96;96666.59;5004866;28;20322;-35
2021/08/28 10:36:20;;;;;;;2.90;1.30;;;;;;;27.49;34.82;96663.09;5010909;28;20053;-39
2021/08/28 10:38:47;;;;;;;2.47;1.08;;;;;;;27.50;34.71;96670.09;5002591;28;22226;-31
2021/08/28 10:41:13;;;;;;;2.83;1.30;;;;;;;27.49;34.79;96671.84;5012000;28;20120;-34
2021/08/28 10:43:38;;;;;;;2.70;1.30;;;;;;;27.50;34.76;96670.09;5015801;28;20041;-32
2021/08/28 10:46:16;;;;;;;4.43;1.33;;;;;;;27.49;34.83;96678.91;5011614;28;20033;-32
2021/08/28 10:48:55;;;;;;;4.32;1.52;;;;;;;27.49;34.99;96674.50;5010396;28;20033;-32
2021/08/28 10:51:25;;;;;;;4.15;1.20;;;;;;;27.48;34.88;96672.81;5016179;28;20119;-33
2021/08/28 10:53:55;;;;;;;6.40;1.40;;;;;;;27.50;34.90;96672.72;5014575;28;20029;-30
2021/08/28 10:56:34;;;;;;;4.75;1.33;;;;;;;27.48;34.88;96659.66;5014530;28;20025;-37
2021/08/28 10:59:28;;;;;;;4.18;1.23;;;;;;;27.48;34.92;96672.81;5014750;28;20067;-35
2021/08/28 11:01:53;;;;;;;1.90;1.20;;;;;;;27.49;34.95;96685.00;5018116;28;20022;-29
2021/08/28 11:04:40;;;;;;;2.53;0.90;;;;;;;27.48;35.02;96675.44;5018757;28;20300;-34
2021/08/28 11:07:18;;;;;;;1.63;1.10;;;;;;;27.49;35.06;96681.53;5016462;28;20029;-29
2021/08/28 11:10:20;;;;;;;3.03;1.15;;;;;;;27.48;34.90;96675.44;5015556;28;20029;-32
2021/08/28 11:13:02;;;;;;;1.77;0.80;;;;;;;27.47;34.88;96683.41;5007837;28;20396;-34
2021/08/28 11:15:27;;;;;;;2.05;0.93;;;;;;;27.47;35.03;96680.78;5014720;28;20033;-34
2021/08/28 11:18:12;;;;;;;2.38;1.10;;;;;;;27.47;34.97;96689.53;5014438;28;20781;-31
2021/08/28 11:20:51;;;;;;;1.48;0.98;;;;;;;27.47;35.02;96686.91;5016949;28;20238;-35
2021/08/28 11:23:17;;;;;;;2.15;1.00;;;;;;;27.47;34.98;96691.31;5010588;28;20136;-28
2021/08/28 11:25:46;;;;;;;3.78;1.15;;;;;;;27.46;35.04;96687.81;5016573;28;20455;-32
2021/08/28 11:28:11;;;;;;;1.17;0.90;;;;;;;27.47;35.02;96686.06;5017885;28;20031;-34
2021/08/28 11:30:46;;;;;;;3.55;1.15;;;;;;;27.46;35.01;96687.00;5017080;28;20030;-30
2021/08/28 11:33:11;;;;;;;1.83;0.80;;;;;;;27.45;35.07;96688.78;5013640;28;20040;-33
2021/08/28 11:35:40;;;;;;;0.90;0.85;;;;;;;27.46;34.90;96694.91;5015678;28;20025;-32
2021/08/28 11:38:07;;;;;;;1.23;1.00;;;;;;;27.46;35.07;96689.63;5019258;28;20045;-31
2021/08/28 11:40:33;;;;;;;1.17;1.00;;;;;;;27.46;35.04;96689.63;5017027;28;20018;-32
2021/08/28 11:42:59;;;;;;;1.77;0.60;;;;;;;27.45;35.07;96694.03;5014180;28;20040;-34
2021/08/28 11:45:32;;;;;;;1.70;0.90;;;;;;;27.46;35.02;96694.91;5016417;28;20036;-34
2021/08/28 11:47:58;;;;;;;0.95;0.70;;;;;;;27.46;34.92;96700.16;5014219;28;20152;-33
2021/08/28 11:50:33;;;;;;;2.55;0.77;;;;;;;27.46;34.98;96698.34;5015496;28;20514;-38